createdAt,value
2023-11-24T00:02:01.187Z,2.97
2023-11-24T00:04:28.883Z,2.35
2023-11-24T00:06:57.542Z,2.22
2023-11-24T00:09:28.134Z,2.60
2023-11-24T00:11:55.332Z,1.90
2023-11-24T00:14:22.683Z,2.10
2023-11-24T00:16:50.550Z,2.28
2023-11-24T00:19:17.683Z,2.47
2023-11-24T00:21:45.072Z,2.20
2023-11-24T00:24:12.468Z,2.20
2023-11-24T00:26:40.504Z,2.40
2023-11-24T00:29:08.559Z,2.00
2023-11-24T00:31:37.839Z,2.47
2023-11-24T00:34:05.236Z,2.10
2023-11-24T00:36:32.593Z,2.22
2023-11-24T00:38:59.800Z,2.25
2023-11-24T00:41:29.594Z,2.13
2023-11-24T00:43:56.836Z,2.05
2023-11-24T00:46:23.972Z,1.98
2023-11-24T00:48:51.151Z,2.53
2023-11-24T00:51:18.425Z,2.00
2023-11-24T00:53:46.027Z,1.92
2023-11-24T00:56:13.429Z,1.77
2023-11-24T00:58:40.577Z,1.98
2023-11-24T01:01:10.687Z,2.70
2023-11-24T01:03:38.891Z,1.90
2023-11-24T01:06:06.344Z,2.42
2023-11-24T01:08:33.598Z,2.40
2023-11-24T01:11:03.445Z,1.80
2023-11-24T01:13:36.283Z,2.20
2023-11-24T01:16:05.480Z,1.70
2023-11-24T01:18:37.654Z,2.10
2023-11-24T01:21:08.611Z,2.17
2023-11-24T01:23:36.948Z,2.30
2023-11-24T01:26:04.683Z,2.10
2023-11-24T01:28:31.839Z,2.17
2023-11-24T01:30:59.145Z,2.47
2023-11-24T01:33:26.478Z,1.85
2023-11-24T01:35:55.129Z,1.90
2023-11-24T01:38:22.203Z,2.10
2023-11-24T01:40:49.463Z,1.95
2023-11-24T01:43:17.349Z,2.13
2023-11-24T01:45:46.918Z,2.15
2023-11-24T01:48:17.108Z,2.17
2023-11-24T01:50:44.879Z,2.13
2023-11-24T01:53:12.989Z,1.95
2023-11-24T01:55:40.982Z,1.92
2023-11-24T01:58:08.441Z,2.38
2023-11-24T02:00:37.912Z,1.90
2023-11-24T02:03:05.924Z,2.28
2023-11-24T02:05:33.567Z,2.33
2023-11-24T02:08:00.981Z,1.65
2023-11-24T02:10:29.304Z,1.98
2023-11-24T02:12:56.655Z,1.80
2023-11-24T02:15:23.865Z,1.60
2023-11-24T02:17:53.312Z,2.15
2023-11-24T02:20:21.323Z,2.00
2023-11-24T02:22:48.532Z,1.90
2023-11-24T02:25:16.631Z,1.90
2023-11-24T02:27:43.940Z,2.25
2023-11-24T02:30:13.004Z,2.30
2023-11-24T02:32:40.400Z,2.00
2023-11-24T02:35:08.045Z,1.88
2023-11-24T02:37:35.293Z,1.80
2023-11-24T02:40:05.239Z,2.47
2023-11-24T02:42:32.633Z,2.13
2023-11-24T02:44:59.793Z,2.15
2023-11-24T02:47:27.216Z,1.85
2023-11-24T02:49:54.382Z,2.20
2023-11-24T02:52:24.814Z,1.80
2023-11-24T02:54:54.036Z,2.55
2023-11-24T02:57:21.985Z,1.90
2023-11-24T02:59:49.423Z,1.75
2023-11-24T03:02:18.122Z,2.05
2023-11-24T03:04:45.636Z,1.58
2023-11-24T03:07:13.391Z,2.88
2023-11-24T03:09:40.776Z,2.00
2023-11-24T03:12:09.479Z,1.80
2023-11-24T03:14:37.913Z,1.80
2023-11-24T03:17:05.630Z,2.20
2023-11-24T03:19:33.315Z,2.53
2023-11-24T03:22:02.063Z,1.70
2023-11-24T03:24:30.125Z,1.80
2023-11-24T03:26:57.950Z,2.03
2023-11-24T03:29:25.352Z,2.05
2023-11-24T03:31:52.862Z,2.03
2023-11-24T03:34:20.178Z,1.70
2023-11-24T03:36:47.755Z,2.03
2023-11-24T03:39:15.749Z,1.85
2023-11-24T03:41:43.106Z,2.10
2023-11-24T03:44:10.953Z,1.92
2023-11-24T03:46:39.490Z,1.90
2023-11-24T03:49:07.917Z,2.15
2023-11-24T03:51:35.997Z,1.70
2023-11-24T03:54:03.765Z,2.15
2023-11-24T03:56:31.634Z,2.30
2023-11-24T03:59:00.223Z,1.60
2023-11-24T04:01:30.886Z,2.10
2023-11-24T04:04:00.517Z,2.22
2023-11-24T04:06:28.169Z,1.80
2023-11-24T04:08:55.803Z,1.77
2023-11-24T04:11:23.475Z,1.95
2023-11-24T04:13:55.732Z,1.70
2023-11-24T04:16:44.052Z,1.73
2023-11-24T04:19:12.668Z,1.55
2023-11-24T04:21:43.134Z,1.52
2023-11-24T04:24:11.005Z,1.90
2023-11-24T04:26:38.304Z,1.60
2023-11-24T04:29:05.626Z,1.70
2023-11-24T04:31:33.103Z,1.70
2023-11-24T04:34:01.780Z,1.77
2023-11-24T04:36:30.071Z,1.70
2023-11-24T04:38:57.706Z,2.05
2023-11-24T04:41:24.865Z,1.65
2023-11-24T04:43:52.090Z,1.60
2023-11-24T04:46:23.383Z,1.60
2023-11-24T04:49:09.151Z,1.63
2023-11-24T04:51:55.093Z,2.13
2023-11-24T04:54:41.181Z,2.00
2023-11-24T04:57:10.471Z,1.70
2023-11-24T04:59:43.927Z,2.33
2023-11-24T05:02:26.361Z,1.73
2023-11-24T05:05:12.194Z,1.70
2023-11-24T05:07:57.980Z,1.70
2023-11-24T05:10:44.095Z,1.85
2023-11-24T05:13:11.372Z,1.73
2023-11-24T05:15:51.554Z,1.70
2023-11-24T05:18:37.483Z,1.50
2023-11-24T05:21:23.155Z,1.98
2023-11-24T05:24:09.368Z,1.83
2023-11-24T05:26:36.676Z,1.70
2023-11-24T05:29:05.095Z,1.60
2023-11-24T05:31:51.726Z,1.50
2023-11-24T05:34:37.243Z,1.73
2023-11-24T05:37:07.546Z,1.70
2023-11-24T05:39:38.990Z,1.60
2023-11-24T05:42:07.326Z,1.48
2023-11-24T05:44:53.199Z,1.92
2023-11-24T05:47:39.168Z,1.88
2023-11-24T05:50:09.782Z,1.40
2023-11-24T05:52:37.026Z,1.90
2023-11-24T05:55:23.000Z,1.88
2023-11-24T05:58:09.929Z,1.50
2023-11-24T06:00:56.570Z,2.28
2023-11-24T06:03:42.267Z,1.60
2023-11-24T06:06:10.202Z,1.90
2023-11-24T06:11:29.441Z,1.60
2023-11-24T06:14:15.467Z,1.75
2023-11-24T06:17:02.463Z,1.60
2023-11-24T06:19:30.363Z,1.50
2023-11-24T06:21:57.899Z,1.25
2023-11-24T06:24:43.736Z,1.27
2023-11-24T06:27:29.563Z,1.30
2023-11-24T06:29:56.968Z,1.67
2023-11-24T06:32:24.254Z,1.67
2023-11-24T06:35:12.898Z,1.50
2023-11-24T06:37:59.366Z,1.33
2023-11-24T06:40:45.340Z,1.20
2023-11-24T06:43:12.782Z,1.60
2023-11-24T06:45:42.966Z,1.48
2023-11-24T06:48:28.844Z,1.50
2023-11-24T06:51:14.725Z,1.40
2023-11-24T06:54:00.716Z,1.35
2023-11-24T06:56:30.808Z,1.63
2023-11-24T06:58:58.199Z,1.83
2023-11-24T07:01:44.072Z,2.05
2023-11-24T07:04:29.720Z,1.45
2023-11-24T07:06:56.941Z,2.20
2023-11-24T07:09:25.045Z,1.80
2023-11-24T07:11:52.149Z,1.83
2023-11-24T07:14:37.875Z,1.60
2023-11-24T07:17:25.312Z,1.83
2023-11-24T07:20:13.465Z,2.35
2023-11-24T07:23:00.946Z,2.30
2023-11-24T07:25:51.302Z,2.13
2023-11-24T07:28:40.211Z,2.55
2023-11-24T07:31:29.737Z,2.15
2023-11-24T07:34:17.523Z,2.80
2023-11-24T07:37:05.402Z,2.10
2023-11-24T07:39:52.890Z,2.13
2023-11-24T07:42:41.976Z,1.92
2023-11-24T07:45:29.449Z,2.10
2023-11-24T07:48:17.255Z,2.60
2023-11-24T07:51:07.192Z,2.20
2023-11-24T07:53:54.715Z,2.50
2023-11-24T07:56:42.589Z,2.30
2023-11-24T07:59:30.262Z,2.35
2023-11-24T08:02:17.800Z,2.10
2023-11-24T08:05:05.958Z,2.28
2023-11-24T08:07:53.415Z,2.20
2023-11-24T08:10:41.525Z,2.42
2023-11-24T08:13:28.970Z,2.17
2023-11-24T08:16:16.593Z,2.63
2023-11-24T08:19:04.261Z,2.53
2023-11-24T08:21:51.727Z,2.40
2023-11-24T08:24:40.155Z,2.90
2023-11-24T08:27:27.810Z,2.83
2023-11-24T08:30:15.494Z,2.20
2023-11-24T08:33:02.917Z,2.20
2023-11-24T08:35:50.573Z,2.47
2023-11-24T08:38:38.003Z,2.10
2023-11-24T08:41:31.208Z,2.40
2023-11-24T08:44:26.152Z,2.47
2023-11-24T08:47:13.931Z,2.47
2023-11-24T08:50:01.468Z,2.63
2023-11-24T08:52:49.525Z,2.42
2023-11-24T08:55:37.130Z,2.60
2023-11-24T08:58:27.475Z,2.25
2023-11-24T09:01:15.485Z,2.60
2023-11-24T09:04:04.109Z,2.75
2023-11-24T09:06:51.718Z,2.35
2023-11-24T09:09:39.276Z,2.40
2023-11-24T09:12:26.731Z,2.00
2023-11-24T09:15:14.520Z,2.05
2023-11-24T09:18:03.004Z,2.50
2023-11-24T09:20:50.562Z,2.25
2023-11-24T09:23:38.774Z,2.35
2023-11-24T09:26:26.480Z,2.03
2023-11-24T09:29:13.947Z,2.10
2023-11-24T09:32:01.641Z,2.45
2023-11-24T09:34:49.910Z,2.00
2023-11-24T09:37:37.474Z,2.50
2023-11-24T09:40:25.566Z,2.20
2023-11-24T09:43:13.758Z,2.33
2023-11-24T09:46:01.295Z,2.50
2023-11-24T09:48:50.202Z,2.30
2023-11-24T09:51:40.950Z,2.90
2023-11-24T09:54:28.887Z,2.90
2023-11-24T09:57:16.387Z,2.70
2023-11-24T10:00:05.744Z,2.60
2023-11-24T10:02:53.708Z,1.92
2023-11-24T10:05:43.704Z,2.10
2023-11-24T10:08:32.225Z,2.65
2023-11-24T10:11:29.805Z,2.28
2023-11-24T10:14:17.568Z,2.42
2023-11-24T10:17:06.373Z,2.28
2023-11-24T10:19:53.840Z,2.53
2023-11-24T10:22:42.031Z,2.40
2023-11-24T10:25:35.761Z,2.17
2023-11-24T10:28:23.500Z,1.90
2023-11-24T10:31:11.129Z,2.67
2023-11-24T10:34:00.750Z,2.60
2023-11-24T10:36:49.206Z,2.95
2023-11-24T10:39:41.054Z,2.70
2023-11-24T10:42:35.106Z,2.35
2023-11-24T10:45:22.903Z,2.72
2023-11-24T10:49:02.991Z,2.15
2023-11-24T10:51:53.227Z,2.30
2023-11-24T10:54:46.483Z,2.15
2023-11-24T10:57:34.133Z,2.10
2023-11-24T11:00:22.576Z,1.85
2023-11-24T11:03:13.965Z,2.22
2023-11-24T11:06:09.213Z,2.65
2023-11-24T11:09:20.877Z,2.38
2023-11-24T11:12:53.005Z,2.10
2023-11-24T11:15:40.695Z,2.45
2023-11-24T11:18:28.310Z,2.00
2023-11-24T11:21:21.786Z,1.95
2023-11-24T11:24:24.299Z,2.00
2023-11-24T11:27:26.397Z,1.92
2023-11-24T11:30:22.811Z,2.00
2023-11-24T11:33:16.385Z,1.92
2023-11-24T11:36:07.005Z,2.10
2023-11-24T11:38:54.885Z,2.22
2023-11-24T11:41:43.070Z,1.80
2023-11-24T11:44:35.633Z,2.33
2023-11-24T11:47:25.933Z,2.15
2023-11-24T11:50:22.130Z,1.90
2023-11-24T11:53:10.443Z,2.65
2023-11-24T11:56:00.005Z,2.42
2023-11-24T11:58:47.509Z,2.50
2023-11-24T12:01:37.126Z,1.83
2023-11-24T12:04:29.712Z,2.13
2023-11-24T12:07:20.605Z,1.90
2023-11-24T12:10:12.831Z,1.90
2023-11-24T12:13:06.171Z,1.60
2023-11-24T12:15:55.152Z,2.78
2023-11-24T12:18:42.759Z,2.35
2023-11-24T12:21:30.390Z,1.90
2023-11-24T12:24:18.277Z,1.67
2023-11-24T12:27:07.620Z,1.90
2023-11-24T12:29:55.092Z,1.80
2023-11-24T12:32:43.194Z,1.77
2023-11-24T12:35:30.690Z,2.17
2023-11-24T12:38:19.079Z,1.92
2023-11-24T12:41:07.235Z,2.20
2023-11-24T12:44:00.840Z,2.28
2023-11-24T12:46:48.506Z,2.00
2023-11-24T12:49:55.423Z,1.85
2023-11-24T12:52:46.986Z,2.10
2023-11-24T12:55:36.063Z,1.80
2023-11-24T12:58:24.268Z,1.95
2023-11-24T13:01:12.607Z,2.10
2023-11-24T13:04:01.292Z,1.98
2023-11-24T13:06:48.979Z,1.80
2023-11-24T13:09:37.151Z,2.08
2023-11-24T13:12:24.643Z,2.17
2023-11-24T13:15:12.182Z,2.10
2023-11-24T13:17:59.929Z,1.90
2023-11-24T13:20:49.196Z,1.60
2023-11-24T13:23:38.782Z,2.75
2023-11-24T13:26:27.362Z,1.80
2023-11-24T13:29:14.845Z,2.03
2023-11-24T13:32:04.444Z,2.30
2023-11-24T13:34:51.869Z,1.95
2023-11-24T13:37:39.693Z,1.63
2023-11-24T13:40:27.897Z,1.45
2023-11-24T13:43:15.865Z,1.75
2023-11-24T13:46:03.793Z,1.67
2023-11-24T13:48:51.425Z,1.75
2023-11-24T13:51:39.135Z,1.55
2023-11-24T13:54:26.736Z,1.63
2023-11-24T13:57:15.350Z,1.60
2023-11-24T14:00:05.601Z,1.70
2023-11-24T14:02:53.086Z,2.10
2023-11-24T14:05:42.203Z,1.83
2023-11-24T14:08:29.775Z,1.50
2023-11-24T14:11:17.517Z,1.70
2023-11-24T14:14:06.551Z,1.40
2023-11-24T14:16:54.700Z,1.98
2023-11-24T14:19:42.345Z,2.00
2023-11-24T14:22:29.978Z,1.88
2023-11-24T14:25:17.513Z,2.20
2023-11-24T14:28:05.478Z,1.90
2023-11-24T14:30:53.006Z,1.60
2023-11-24T14:33:42.120Z,2.10
2023-11-24T14:36:30.102Z,2.08
2023-11-24T14:39:21.316Z,2.00
2023-11-24T14:42:08.799Z,2.08
2023-11-24T14:44:56.240Z,1.90
2023-11-24T14:47:50.785Z,1.77
2023-11-24T14:50:38.426Z,1.77
2023-11-24T14:53:25.975Z,1.48
2023-11-24T14:56:19.819Z,1.50
2023-11-24T14:59:07.339Z,1.50
2023-11-24T15:01:59.921Z,1.48
2023-11-24T15:04:47.645Z,1.60
2023-11-24T15:07:37.148Z,2.53
2023-11-24T15:10:25.320Z,1.55
2023-11-24T15:13:22.977Z,1.67
2023-11-24T15:16:20.527Z,1.70
2023-11-24T15:19:08.273Z,1.40
2023-11-24T15:21:57.674Z,1.75
2023-11-24T15:24:45.268Z,1.60
2023-11-24T15:27:32.803Z,1.77
2023-11-24T15:30:22.037Z,1.40
2023-11-24T15:33:09.923Z,1.80
2023-11-24T15:35:57.690Z,1.60
2023-11-24T15:38:50.622Z,1.45
2023-11-24T15:41:39.367Z,1.75
2023-11-24T15:44:29.253Z,1.50
2023-11-24T15:47:17.008Z,1.55
2023-11-24T15:50:10.029Z,1.27
2023-11-24T15:52:58.644Z,1.60
2023-11-24T15:55:46.363Z,1.60
2023-11-24T15:58:34.329Z,1.42
2023-11-24T16:01:22.993Z,1.60
2023-11-24T16:04:12.302Z,2.05
2023-11-24T16:07:04.438Z,1.83
2023-11-24T16:09:52.405Z,1.60
2023-11-24T16:12:40.327Z,1.83
2023-11-24T16:15:27.865Z,1.45
2023-11-24T16:18:16.751Z,1.50
2023-11-24T16:21:04.449Z,1.90
2023-11-24T16:23:53.063Z,1.80
2023-11-24T16:26:40.500Z,1.60
2023-11-24T16:29:28.030Z,2.10
2023-11-24T16:32:15.641Z,1.58
2023-11-24T16:35:09.917Z,2.15
2023-11-24T16:40:44.696Z,1.63
2023-11-24T16:43:32.736Z,1.73
2023-11-24T16:46:22.699Z,1.85
2023-11-24T16:49:11.394Z,1.60
2023-11-24T16:51:59.712Z,1.73
2023-11-24T16:54:47.257Z,1.55
2023-11-24T16:57:35.334Z,1.80
2023-11-24T17:00:23.061Z,1.80
2023-11-24T17:03:12.153Z,1.50
2023-11-24T17:05:59.904Z,1.90
2023-11-24T17:08:47.373Z,1.88
2023-11-24T17:11:35.043Z,1.60
2023-11-24T17:14:23.513Z,1.60
2023-11-24T17:17:13.473Z,1.60
2023-11-24T17:20:01.194Z,1.90
2023-11-24T17:22:49.233Z,1.70
2023-11-24T17:25:37.473Z,1.42
2023-11-24T17:28:25.280Z,1.58
2023-11-24T17:31:14.987Z,1.50
2023-11-24T17:34:02.729Z,1.65
2023-11-24T17:36:50.773Z,1.60
2023-11-24T17:39:41.349Z,1.75
2023-11-24T17:42:28.802Z,1.77
2023-11-24T17:45:20.178Z,2.17
2023-11-24T17:48:09.888Z,1.85
2023-11-24T17:51:01.052Z,1.77
2023-11-24T17:53:49.154Z,1.75
2023-11-24T17:56:36.686Z,1.80
2023-11-24T17:59:24.157Z,1.70
2023-11-24T18:02:13.086Z,1.48
2023-11-24T18:05:01.715Z,1.60
2023-11-24T18:07:49.570Z,2.05
2023-11-24T18:10:38.815Z,1.70
2023-11-24T18:13:26.957Z,1.63
2023-11-24T18:16:14.601Z,1.40
2023-11-24T18:19:02.286Z,1.77
2023-11-24T18:21:49.897Z,1.85
2023-11-24T18:24:37.391Z,1.50
2023-11-24T18:27:25.353Z,1.95
2023-11-24T18:30:13.441Z,1.95
2023-11-24T18:33:01.207Z,2.20
2023-11-24T18:35:48.685Z,1.40
2023-11-24T18:38:36.364Z,1.95
2023-11-24T18:41:23.797Z,2.05
2023-11-24T18:44:11.346Z,1.85
2023-11-24T18:46:58.781Z,1.70
2023-11-24T18:49:46.897Z,1.83
2023-11-24T18:52:34.414Z,1.83
2023-11-24T18:55:21.995Z,1.85
2023-11-24T18:58:10.050Z,1.67
2023-11-24T19:00:57.700Z,2.78
2023-11-24T19:03:45.193Z,2.20
2023-11-24T19:06:33.380Z,2.10
2023-11-24T19:09:20.823Z,2.15
2023-11-24T19:12:08.506Z,2.75
2023-11-24T19:14:55.994Z,1.90
2023-11-24T19:17:44.333Z,1.90
2023-11-24T19:20:31.773Z,2.17
2023-11-24T19:23:19.325Z,1.65
2023-11-24T19:26:13.235Z,2.15
2023-11-24T19:29:08.304Z,2.10
2023-11-24T19:31:58.864Z,1.65
2023-11-24T19:34:46.424Z,1.83
2023-11-24T19:37:34.105Z,1.80
2023-11-24T19:40:21.729Z,1.45
2023-11-24T19:43:09.248Z,1.70
2023-11-24T19:45:58.020Z,1.80
2023-11-24T19:48:45.769Z,1.80
2023-11-24T19:51:33.896Z,1.60
2023-11-24T19:54:21.470Z,2.08
2023-11-24T19:57:09.065Z,1.98
2023-11-24T19:59:57.072Z,2.30
2023-11-24T20:02:44.668Z,2.20
2023-11-24T20:05:32.361Z,2.30
2023-11-24T20:08:20.787Z,1.77
2023-11-24T20:11:09.875Z,1.80
2023-11-24T20:13:57.391Z,1.90
2023-11-24T20:16:48.347Z,2.10
2023-11-24T20:19:36.285Z,2.08
2023-11-24T20:22:23.790Z,1.73
2023-11-24T20:25:11.361Z,2.25
2023-11-24T20:27:58.915Z,1.73
2023-11-24T20:30:46.804Z,2.15
2023-11-24T20:33:35.030Z,2.28
2023-11-24T20:36:22.962Z,1.77
2023-11-24T20:39:10.454Z,1.90
2023-11-24T20:41:57.950Z,1.98
2023-11-24T20:44:45.433Z,1.70
2023-11-24T20:47:32.974Z,1.85
2023-11-24T20:50:20.419Z,2.00
2023-11-24T20:53:09.572Z,1.70
2023-11-24T20:55:57.141Z,1.73
2023-11-24T20:58:44.596Z,1.50
2023-11-24T21:01:32.315Z,1.65
2023-11-24T21:04:19.848Z,1.60
2023-11-24T21:07:07.568Z,1.60
2023-11-24T21:09:55.113Z,1.90
2023-11-24T21:12:43.493Z,1.98
2023-11-24T21:15:31.041Z,1.88
2023-11-24T21:18:18.885Z,1.70
2023-11-24T21:21:06.461Z,1.65
2023-11-24T21:23:53.957Z,1.60
2023-11-24T21:26:41.712Z,1.77
2023-11-24T21:29:30.914Z,1.60
2023-11-24T21:32:18.954Z,1.50
2023-11-24T21:35:06.870Z,1.58
2023-11-24T21:37:54.282Z,1.88
2023-11-24T21:40:41.979Z,1.88
2023-11-24T21:43:29.594Z,1.80
2023-11-24T21:46:23.643Z,2.00
2023-11-24T21:49:11.286Z,1.63
2023-11-24T21:51:58.876Z,1.73
2023-11-24T21:54:48.620Z,1.67
2023-11-24T21:57:36.269Z,1.50
2023-11-24T22:00:24.205Z,1.65
2023-11-24T22:03:11.812Z,1.30
2023-11-24T22:05:59.711Z,1.33
2023-11-24T22:08:47.234Z,1.63
2023-11-24T22:11:35.206Z,1.52
2023-11-24T22:14:25.575Z,1.30
2023-11-24T22:17:13.140Z,1.50
2023-11-24T22:20:04.023Z,2.33
2023-11-24T22:22:52.539Z,1.48
2023-11-24T22:25:40.338Z,1.80
2023-11-24T22:28:28.296Z,1.63
2023-11-24T22:31:17.443Z,1.60
2023-11-24T22:34:05.141Z,1.20
2023-11-24T22:36:52.665Z,1.45
2023-11-24T22:39:40.692Z,1.10
2023-11-24T22:42:29.046Z,1.25
2023-11-24T22:45:16.843Z,1.10
2023-11-24T22:48:04.545Z,1.15
2023-11-24T22:50:52.011Z,1.50
2023-11-24T22:53:41.084Z,1.20
2023-11-24T22:56:28.838Z,1.27
2023-11-24T22:59:16.379Z,1.15
2023-11-24T23:02:06.026Z,1.42
2023-11-24T23:04:53.677Z,1.38
2023-11-24T23:07:41.238Z,1.40
2023-11-24T23:10:32.170Z,1.40
2023-11-24T23:13:19.717Z,1.38
2023-11-24T23:16:07.578Z,1.50
2023-11-24T23:18:55.291Z,1.67
2023-11-24T23:21:42.825Z,1.40
2023-11-24T23:24:30.312Z,1.48
2023-11-24T23:27:18.909Z,1.60
2023-11-24T23:30:09.661Z,1.40
2023-11-24T23:33:10.163Z,1.40
2023-11-24T23:36:04.754Z,1.27
2023-11-24T23:38:52.295Z,1.30
2023-11-24T23:41:40.609Z,1.60
2023-11-24T23:44:28.191Z,1.40
2023-11-24T23:47:16.139Z,1.55
2023-11-24T23:50:05.558Z,1.50
2023-11-24T23:52:53.174Z,1.27
2023-11-24T23:55:40.614Z,1.33
2023-11-24T23:58:28.454Z,1.33
